Time;durP1;ratioP1;P1;durP2;ratioP2;P2;SDS_P1;SDS_P2;PMS_P1;PMS_P2;Temp;Humidity;BMP_temperature;BMP_pressure;BME280_temperature;BME280_humidity;BME280_pressure;Samples;Min_cycle;Max_cycle;Signal;HPM_P1;HPM_P2
2024/02/23 00:00:52;;;;;;;11.95;2.17;;;7.10;99.90;;;;;;5091281;28;20024;-84
2024/02/23 00:03:18;;;;;;;11.95;2.25;;;7.10;99.90;;;;;;5092696;28;20077;-84
2024/02/23 00:05:43;;;;;;;11.63;2.30;;;7.20;99.90;;;;;;5091708;28;20484;-83
2024/02/23 00:08:09;;;;;;;10.60;2.15;;;7.20;99.90;;;;;;5089537;28;20302;-83
2024/02/23 00:10:35;;;;;;;5.82;1.70;;;7.20;99.90;;;;;;5086186;28;20833;-83
2024/02/23 00:13:00;;;;;;;6.28;1.10;;;7.20;99.90;;;;;;5078404;28;20024;-83
2024/02/23 00:15:26;;;;;;;6.30;1.45;;;7.10;99.90;;;;;;5088551;28;20024;-83
2024/02/23 00:17:52;;;;;;;8.02;1.55;;;7.10;99.90;;;;;;5091221;28;20375;-83
2024/02/23 00:20:17;;;;;;;14.90;2.15;;;7.00;99.90;;;;;;5092362;28;20077;-83
2024/02/23 00:22:43;;;;;;;9.80;1.80;;;7.00;99.90;;;;;;5091867;28;20044;-83
2024/02/23 00:25:08;;;;;;;11.70;1.70;;;7.00;99.90;;;;;;5091792;28;20067;-83
2024/02/23 00:27:34;;;;;;;14.02;1.52;;;6.90;99.90;;;;;;5090027;28;20035;-84
2024/02/23 00:30:00;;;;;;;11.85;2.80;;;6.90;99.90;;;;;;5091417;28;20028;-83
2024/02/23 00:32:25;;;;;;;15.68;1.75;;;6.90;99.90;;;;;;5080444;28;20056;-83
2024/02/23 00:34:51;;;;;;;12.77;2.00;;;6.90;99.90;;;;;;5070638;28;20020;-83
2024/02/23 00:37:16;;;;;;;12.40;2.08;;;6.90;99.90;;;;;;5080482;28;20498;-83
2024/02/23 00:39:42;;;;;;;11.48;1.92;;;6.90;99.90;;;;;;5090908;28;20028;-83
2024/02/23 00:42:07;;;;;;;6.55;1.63;;;6.90;99.90;;;;;;5087968;28;20107;-83
2024/02/23 00:44:33;;;;;;;10.73;2.60;;;7.00;99.90;;;;;;5091540;28;20613;-84
2024/02/23 00:47:01;;;;;;;10.90;2.10;;;7.00;99.90;;;;;;5091945;28;20521;-84
2024/02/23 00:49:28;;;;;;;16.30;2.35;;;7.00;99.90;;;;;;5090284;28;20036;-84
2024/02/23 00:51:53;;;;;;;9.07;1.38;;;7.10;99.90;;;;;;5084286;28;20514;-84
2024/02/23 00:54:19;;;;;;;18.00;2.03;;;7.10;99.90;;;;;;5075030;28;20078;-84
2024/02/23 00:56:45;;;;;;;12.82;2.45;;;7.10;99.90;;;;;;5088742;28;20051;-84
2024/02/23 00:59:10;;;;;;;13.98;1.75;;;7.10;99.90;;;;;;5092090;28;20028;-84
2024/02/23 01:01:36;;;;;;;13.30;2.22;;;7.10;99.90;;;;;;5090701;28;20024;-84
2024/02/23 01:04:01;;;;;;;9.90;1.63;;;7.10;99.90;;;;;;5091745;28;20038;-84
2024/02/23 01:06:28;;;;;;;6.63;1.92;;;7.10;99.90;;;;;;5092191;28;20016;-84
2024/02/23 01:08:53;;;;;;;13.80;1.92;;;7.20;99.90;;;;;;5092167;28;20032;-82
2024/02/23 01:11:19;;;;;;;11.07;1.77;;;7.10;99.90;;;;;;5087444;28;20035;-83
2024/02/23 01:13:45;;;;;;;10.02;1.95;;;7.20;99.90;;;;;;5091484;28;20016;-84
2024/02/23 01:16:10;;;;;;;10.05;1.73;;;7.20;99.90;;;;;;5089728;28;20032;-83
2024/02/23 01:18:36;;;;;;;21.98;2.47;;;7.20;99.90;;;;;;5091062;28;20103;-84
2024/02/23 01:21:01;;;;;;;7.60;1.30;;;7.20;99.90;;;;;;5092420;28;20475;-84
2024/02/23 01:23:27;;;;;;;12.90;1.95;;;7.20;99.90;;;;;;5090957;28;20084;-83
2024/02/23 01:25:53;;;;;;;8.10;1.60;;;7.20;99.90;;;;;;5090417;28;20071;-83
2024/02/23 01:28:18;;;;;;;9.60;1.63;;;7.10;99.90;;;;;;5089660;28;20024;-84
2024/02/23 01:30:44;;;;;;;7.35;1.30;;;7.10;99.90;;;;;;5085915;28;20029;-83
2024/02/23 01:33:09;;;;;;;7.13;1.25;;;7.10;99.90;;;;;;5073788;28;20025;-82
2024/02/23 01:35:36;;;;;;;16.38;2.45;;;7.10;99.90;;;;;;5086308;28;20384;-82
2024/02/23 01:38:02;;;;;;;5.05;1.67;;;7.10;99.90;;;;;;5088861;28;20103;-82
2024/02/23 01:40:28;;;;;;;7.70;1.30;;;7.10;99.90;;;;;;5088620;28;20079;-82
2024/02/23 01:43:04;;;;;;;8.73;1.60;;;7.10;99.90;;;;;;5090007;28;20032;-82
2024/02/23 01:45:30;;;;;;;6.75;1.40;;;7.10;99.90;;;;;;5088877;28;20391;-82
2024/02/23 01:47:56;;;;;;;6.63;1.42;;;7.10;99.90;;;;;;5087610;28;20027;-81
2024/02/23 01:50:22;;;;;;;11.40;2.00;;;7.00;99.90;;;;;;5089420;28;20020;-82
2024/02/23 01:52:49;;;;;;;10.70;1.88;;;7.00;99.90;;;;;;5085624;28;20197;-82
2024/02/23 01:55:14;;;;;;;12.25;1.90;;;7.70;99.90;;;;;;5078987;28;20024;-82
2024/02/23 01:57:40;;;;;;;6.38;1.55;;;6.90;99.90;;;;;;5089180;28;20028;-82
2024/02/23 02:00:07;;;;;;;9.57;2.60;;;6.80;99.90;;;;;;5088596;28;20586;-82
2024/02/23 02:02:33;;;;;;;8.55;1.23;;;6.80;99.90;;;;;;5090215;28;20103;-82
2024/02/23 02:04:59;;;;;;;8.43;1.35;;;6.80;99.90;;;;;;5092036;28;20056;-82
2024/02/23 02:07:25;;;;;;;11.02;2.08;;;6.80;99.90;;;;;;5090086;28;20316;-82
2024/02/23 02:09:50;;;;;;;11.13;1.13;;;6.70;99.90;;;;;;5101445;28;20556;-82
2024/02/23 02:12:29;;;;;;;11.98;2.00;;;6.70;99.90;;;;;;5097520;28;20066;-83
2024/02/23 02:14:55;;;;;;;3.65;1.33;;;6.70;99.90;;;;;;5088822;28;20024;-84
2024/02/23 02:17:21;;;;;;;11.45;1.80;;;6.70;99.90;;;;;;5090386;28;20040;-82
2024/02/23 02:19:50;;;;;;;6.97;1.58;;;6.60;99.90;;;;;;5088598;28;20107;-83
2024/02/23 02:22:15;;;;;;;13.70;2.47;;;6.60;99.90;;;;;;5090834;28;20643;-83
2024/02/23 02:24:43;;;;;;;12.25;2.13;;;6.60;99.90;;;;;;5088980;28;20032;-82
2024/02/23 02:27:09;;;;;;;7.07;1.30;;;6.60;99.90;;;;;;5089457;28;20028;-83
2024/02/23 02:29:35;;;;;;;5.95;1.50;;;6.60;99.90;;;;;;5089426;28;20031;-83
2024/02/23 02:32:02;;;;;;;5.65;1.77;;;6.60;99.90;;;;;;5082875;28;20021;-82
2024/02/23 02:34:28;;;;;;;7.70;1.55;;;6.60;99.90;;;;;;5074213;28;20083;-83
2024/02/23 02:36:54;;;;;;;11.50;2.08;;;6.60;99.90;;;;;;5083503;28;20028;-83
2024/02/23 02:39:20;;;;;;;9.05;1.83;;;6.50;99.90;;;;;;5089583;28;20039;-83
2024/02/23 02:41:47;;;;;;;13.25;2.70;;;6.60;99.90;;;;;;5088613;28;20044;-83
2024/02/23 02:44:13;;;;;;;11.95;1.95;;;6.50;99.90;;;;;;5089696;28;20055;-82
2024/02/23 02:46:40;;;;;;;7.78;1.73;;;6.50;99.90;;;;;;5089493;28;20028;-82
2024/02/23 02:49:05;;;;;;;14.95;2.60;;;6.50;99.90;;;;;;5088989;28;20024;-84
2024/02/23 02:51:31;;;;;;;8.50;1.77;;;6.50;99.90;;;;;;5090008;28;20490;-83
2024/02/23 02:53:57;;;;;;;10.77;2.15;;;6.50;99.90;;;;;;5094623;28;20042;-83
2024/02/23 02:56:22;;;;;;;11.57;2.08;;;6.50;99.90;;;;;;5078156;28;20032;-83
2024/02/23 02:58:48;;;;;;;6.18;1.52;;;6.40;99.90;;;;;;5073422;28;20050;-82
2024/02/23 03:01:13;;;;;;;13.35;1.65;;;6.40;99.90;;;;;;5073629;28;20024;-82
2024/02/23 03:03:39;;;;;;;7.18;1.70;;;6.40;99.90;;;;;;5072429;28;20021;-82
2024/02/23 03:06:05;;;;;;;12.75;1.40;;;6.40;99.90;;;;;;5077690;28;20112;-82
2024/02/23 03:08:31;;;;;;;6.22;1.95;;;6.40;99.90;;;;;;5093103;28;20020;-83
2024/02/23 03:10:57;;;;;;;5.43;1.60;;;6.40;99.90;;;;;;5089843;28;20039;-82
2024/02/23 03:13:22;;;;;;;9.95;2.17;;;6.30;99.90;;;;;;5091107;28;20020;-83
2024/02/23 03:15:48;;;;;;;6.63;1.50;;;6.30;99.90;;;;;;5075430;28;20032;-82
2024/02/23 03:18:14;;;;;;;8.48;1.60;;;6.30;99.90;;;;;;5073067;28;20426;-82
2024/02/23 03:20:41;;;;;;;5.97;1.20;;;6.30;99.90;;;;;;5073066;28;20032;-84
2024/02/23 03:23:07;;;;;;;11.35;2.30;;;6.30;99.90;;;;;;5073513;28;20103;-83
2024/02/23 03:25:32;;;;;;;7.30;2.05;;;6.20;99.90;;;;;;5073111;28;20115;-82
2024/02/23 03:27:58;;;;;;;11.52;1.30;;;6.30;99.90;;;;;;5073240;28;20170;-83
2024/02/23 03:30:24;;;;;;;6.13;1.45;;;6.20;99.90;;;;;;5072000;28;20024;-82
2024/02/23 03:32:49;;;;;;;6.15;1.45;;;6.20;99.90;;;;;;5072115;28;20103;-82
2024/02/23 03:35:15;;;;;;;8.57;2.22;;;6.20;99.90;;;;;;5085898;28;20203;-82
2024/02/23 03:37:40;;;;;;;16.98;1.77;;;6.20;99.90;;;;;;5090378;28;20031;-82
2024/02/23 03:40:07;;;;;;;12.43;1.60;;;6.20;99.90;;;;;;5093513;28;20479;-83
2024/02/23 03:42:32;;;;;;;5.80;1.33;;;6.10;99.90;;;;;;5093919;28;20024;-83
2024/02/23 03:44:58;;;;;;;9.25;1.60;;;6.10;99.90;;;;;;5093046;28;20036;-82
2024/02/23 03:47:23;;;;;;;7.57;1.73;;;6.40;99.90;;;;;;5093419;28;20115;-83
2024/02/23 03:49:49;;;;;;;11.45;2.45;;;6.10;99.90;;;;;;5093682;28;20035;-83
2024/02/23 03:52:14;;;;;;;4.75;1.30;;;6.10;99.90;;;;;;5092616;28;20103;-83
2024/02/23 03:54:40;;;;;;;11.18;1.70;;;6.10;99.90;;;;;;5090931;28;20107;-83
2024/02/23 03:57:05;;;;;;;11.98;1.67;;;6.10;99.90;;;;;;5090652;28;20055;-83
2024/02/23 03:59:31;;;;;;;7.30;1.40;;;6.10;99.90;;;;;;5090536;28;20218;-83
2024/02/23 04:01:56;;;;;;;8.65;2.05;;;6.10;99.90;;;;;;5073939;28;20044;-82
2024/02/23 04:04:22;;;;;;;9.45;2.17;;;6.10;99.90;;;;;;5089307;28;20040;-83
2024/02/23 04:06:48;;;;;;;9.25;1.48;;;6.10;99.90;;;;;;5091006;28;20012;-83
2024/02/23 04:09:13;;;;;;;9.68;2.25;;;6.10;99.90;;;;;;5092938;28;20043;-83
2024/02/23 04:11:39;;;;;;;11.25;2.28;;;6.10;99.90;;;;;;5092620;28;20027;-83
2024/02/23 04:14:07;;;;;;;9.85;1.50;;;6.10;99.90;;;;;;5091418;28;20051;-83
2024/02/23 04:16:32;;;;;;;5.65;1.38;;;6.10;99.90;;;;;;5092470;28;20036;-82
2024/02/23 04:18:59;;;;;;;12.20;2.60;;;6.10;99.90;;;;;;5091627;28;20020;-83
2024/02/23 04:21:25;;;;;;;8.38;1.50;;;6.10;99.90;;;;;;5088563;28;20031;-83
2024/02/23 04:23:50;;;;;;;6.97;1.73;;;6.10;99.90;;;;;;5091006;28;20036;-83
2024/02/23 04:26:17;;;;;;;18.73;2.60;;;6.10;99.90;;;;;;5088798;28;20063;-83
2024/02/23 04:28:43;;;;;;;11.77;1.88;;;6.10;99.90;;;;;;5091262;28;20016;-83
2024/02/23 04:31:09;;;;;;;6.88;1.70;;;6.10;99.90;;;;;;5092400;28;20115;-82
2024/02/23 04:33:36;;;;;;;7.70;1.50;;;6.10;99.90;;;;;;5091851;28;20077;-84
2024/02/23 04:36:03;;;;;;;12.18;2.38;;;6.10;99.90;;;;;;5093216;28;20028;-83
2024/02/23 04:38:29;;;;;;;11.32;1.70;;;6.10;99.90;;;;;;5095580;28;20043;-83
2024/02/23 04:40:55;;;;;;;6.63;1.75;;;6.10;99.90;;;;;;5091493;28;20071;-83
2024/02/23 04:43:20;;;;;;;10.65;1.58;;;6.20;99.90;;;;;;5089414;28;20055;-83
2024/02/23 04:45:46;;;;;;;11.57;2.15;;;6.20;99.90;;;;;;5091308;28;20108;-83
2024/02/23 04:48:11;;;;;;;5.63;1.63;;;6.20;99.90;;;;;;5090579;28;20445;-83
2024/02/23 04:50:37;;;;;;;10.35;1.65;;;6.20;99.90;;;;;;5090989;28;20054;-82
2024/02/23 04:53:02;;;;;;;5.55;1.55;;;6.30;99.90;;;;;;5091706;28;20077;-83
2024/02/23 04:55:28;;;;;;;7.25;1.48;;;6.30;99.90;;;;;;5090080;28;20444;-82
2024/02/23 04:57:53;;;;;;;7.15;1.13;;;6.30;99.90;;;;;;5092664;28;20024;-83
2024/02/23 05:00:19;;;;;;;7.30;1.52;;;6.30;99.90;;;;;;5085233;28;20490;-83
2024/02/23 05:02:46;;;;;;;8.40;2.03;;;6.30;99.90;;;;;;5091014;28;20088;-83
2024/02/23 05:05:12;;;;;;;7.55;1.80;;;6.30;99.90;;;;;;5091647;28;20048;-83
2024/02/23 05:07:38;;;;;;;10.45;2.30;;;6.40;99.90;;;;;;5088969;28;20020;-83
2024/02/23 05:10:04;;;;;;;10.73;2.35;;;6.40;99.90;;;;;;5089185;28;20028;-83
2024/02/23 05:12:30;;;;;;;5.10;2.25;;;6.40;99.90;;;;;;5089794;28;20169;-83
2024/02/23 05:14:56;;;;;;;11.93;3.13;;;6.40;99.90;;;;;;5089888;28;20110;-83
2024/02/23 05:17:21;;;;;;;11.02;2.42;;;6.40;99.90;;;;;;5090502;28;20449;-83
2024/02/23 05:19:47;;;;;;;9.38;2.15;;;6.40;99.90;;;;;;5088711;28;20566;-84
2024/02/23 05:22:12;;;;;;;7.65;2.30;;;6.40;99.90;;;;;;5089975;28;20047;-84
2024/02/23 05:24:38;;;;;;;3.90;1.70;;;6.40;99.90;;;;;;5088854;28;20480;-83
2024/02/23 05:27:04;;;;;;;5.65;2.67;;;6.40;99.90;;;;;;5092253;28;20020;-83
2024/02/23 05:29:29;;;;;;;8.68;3.00;;;6.40;99.90;;;;;;5090496;28;20045;-83
2024/02/23 05:31:55;;;;;;;12.40;3.15;;;6.40;99.90;;;;;;5091201;28;20032;-83
2024/02/23 05:34:21;;;;;;;18.33;2.85;;;6.40;99.90;;;;;;5090101;28;20039;-82
2024/02/23 05:36:47;;;;;;;9.52;3.40;;;6.40;99.90;;;;;;5090040;28;20536;-83
2024/02/23 05:39:15;;;;;;;10.38;2.17;;;6.30;99.90;;;;;;5091300;28;20077;-82
2024/02/23 05:41:41;;;;;;;4.10;2.60;;;6.40;99.90;;;;;;5088261;28;20044;-83
2024/02/23 05:44:07;;;;;;;8.60;2.58;;;6.30;99.90;;;;;;5088010;28;20464;-83
2024/02/23 05:46:36;;;;;;;3.30;1.83;;;6.40;99.90;;;;;;5089132;28;20052;-83
2024/02/23 05:49:04;;;;;;;8.45;2.25;;;6.40;99.90;;;;;;5090541;28;20051;-82
2024/02/23 05:51:29;;;;;;;5.80;2.17;;;6.30;99.90;;;;;;5090935;28;20432;-83
2024/02/23 05:53:55;;;;;;;4.05;1.90;;;6.30;99.90;;;;;;5089602;28;20024;-83
2024/02/23 05:56:21;;;;;;;6.22;2.95;;;6.30;99.90;;;;;;5088792;28;20055;-83
2024/02/23 05:58:47;;;;;;;6.85;2.53;;;6.30;99.90;;;;;;5088812;28;20027;-83
2024/02/23 06:01:13;;;;;;;5.80;2.17;;;6.30;99.90;;;;;;5086619;28;20035;-83
2024/02/23 06:03:38;;;;;;;6.85;2.05;;;6.30;99.90;;;;;;5070660;28;20413;-84
2024/02/23 06:06:08;;;;;;;12.52;2.08;;;6.40;99.90;;;;;;5081294;28;20052;-83
2024/02/23 06:08:34;;;;;;;4.28;2.20;;;6.40;99.90;;;;;;5089841;28;20470;-83
2024/02/23 06:10:59;;;;;;;6.05;1.88;;;6.40;99.90;;;;;;5089516;28;20056;-84
2024/02/23 06:13:25;;;;;;;7.20;1.92;;;6.40;99.90;;;;;;5088648;28;20024;-84
2024/02/23 06:15:51;;;;;;;8.50;2.38;;;6.40;99.90;;;;;;5090152;28;20093;-84
2024/02/23 06:18:16;;;;;;;6.47;1.83;;;6.40;99.90;;;;;;5089774;28;20035;-84
2024/02/23 06:20:42;;;;;;;5.50;1.92;;;6.40;99.90;;;;;;5089310;28;20028;-83
2024/02/23 06:23:07;;;;;;;7.43;2.30;;;6.50;99.90;;;;;;5081115;28;20032;-85
2024/02/23 06:25:33;;;;;;;4.22;1.80;;;6.50;99.90;;;;;;5080924;28;20032;-85
2024/02/23 06:27:58;;;;;;;4.45;2.08;;;6.50;99.90;;;;;;5090492;28;20020;-82
2024/02/23 06:30:24;;;;;;;14.50;2.47;;;6.50;99.90;;;;;;5085836;28;20032;-84
2024/02/23 06:32:49;;;;;;;6.35;2.15;;;6.50;99.90;;;;;;5091768;28;20280;-83
2024/02/23 06:35:15;;;;;;;8.65;2.35;;;6.50;99.90;;;;;;5085124;28;20398;-83
2024/02/23 06:37:41;;;;;;;4.43;2.00;;;6.50;99.90;;;;;;5091105;28;20035;-83
2024/02/23 06:40:07;;;;;;;1.90;1.60;;;6.50;99.90;;;;;;5079274;28;20044;-84
2024/02/23 06:42:33;;;;;;;9.20;2.15;;;6.50;99.90;;;;;;5079244;28;20028;-84
2024/02/23 06:44:58;;;;;;;10.30;2.83;;;6.50;99.90;;;;;;5085969;28;20047;-83
2024/02/23 06:47:24;;;;;;;7.45;2.70;;;6.50;99.90;;;;;;5082877;28;20474;-83
2024/02/23 06:49:50;;;;;;;10.48;2.88;;;6.50;99.90;;;;;;5071073;28;20087;-83
2024/02/23 06:52:16;;;;;;;3.30;2.05;;;6.50;99.90;;;;;;5073153;28;20020;-82
2024/02/23 06:54:41;;;;;;;5.93;2.20;;;6.60;99.90;;;;;;5083024;28;20036;-83
2024/02/23 06:57:07;;;;;;;5.90;1.80;;;6.60;99.90;;;;;;5084347;28;20030;-82
2024/02/23 06:59:33;;;;;;;9.00;2.40;;;6.60;99.90;;;;;;5094121;28;20379;-83
2024/02/23 07:01:58;;;;;;;9.32;1.92;;;6.60;99.90;;;;;;5094256;28;20098;-83
2024/02/23 07:04:25;;;;;;;7.95;1.98;;;6.60;99.90;;;;;;5094775;28;20052;-83
2024/02/23 07:06:50;;;;;;;11.50;2.58;;;6.60;99.90;;;;;;5094640;28;20369;-83
2024/02/23 07:09:16;;;;;;;7.82;1.58;;;6.60;99.90;;;;;;5093179;28;20020;-83
2024/02/23 07:11:43;;;;;;;8.38;2.40;;;6.60;99.90;;;;;;5075674;28;20024;-83
2024/02/23 07:14:09;;;;;;;6.00;2.00;;;6.60;99.90;;;;;;5094112;28;20070;-84
2024/02/23 07:16:41;;;;;;;4.82;1.85;;;6.60;99.90;;;;;;5093558;28;20024;-84
2024/02/23 07:19:07;;;;;;;9.70;2.25;;;6.60;99.90;;;;;;5094711;28;20031;-83
2024/02/23 07:21:33;;;;;;;5.63;1.45;;;6.60;99.90;;;;;;5094641;28;20058;-83
2024/02/23 07:23:59;;;;;;;9.30;2.13;;;6.70;99.90;;;;;;5094189;28;20019;-83
2024/02/23 07:26:25;;;;;;;8.48;1.50;;;6.70;99.90;;;;;;5093997;28;20075;-82
2024/02/23 07:28:50;;;;;;;17.25;1.98;;;6.70;99.90;;;;;;5094190;28;20056;-83
2024/02/23 07:31:16;;;;;;;6.00;1.45;;;6.70;99.90;;;;;;5086962;28;20036;-84
2024/02/23 07:33:43;;;;;;;6.28;1.55;;;6.70;99.90;;;;;;5091586;28;20046;-83
2024/02/23 07:36:14;;;;;;;5.55;1.30;;;6.70;99.90;;;;;;5093146;28;20116;-83
2024/02/23 07:38:39;;;;;;;10.10;2.28;;;6.60;99.90;;;;;;5092400;28;20054;-83
2024/02/23 07:41:05;;;;;;;7.47;1.77;;;6.60;99.90;;;;;;5093973;28;20052;-83
2024/02/23 07:43:30;;;;;;;4.45;1.30;;;6.60;99.90;;;;;;5093424;28;20012;-84
2024/02/23 07:45:56;;;;;;;11.48;2.38;;;6.60;99.90;;;;;;5084066;28;20059;-83
2024/02/23 07:48:22;;;;;;;5.97;1.80;;;6.60;99.90;;;;;;5074283;28;20138;-82
2024/02/23 07:50:47;;;;;;;5.13;1.52;;;6.60;99.90;;;;;;5085180;28;20024;-82
2024/02/23 07:53:13;;;;;;;11.88;1.80;;;6.60;99.90;;;;;;5083372;28;20032;-83
2024/02/23 07:55:38;;;;;;;12.55;1.77;;;6.60;99.90;;;;;;5091755;28;20028;-84
2024/02/23 07:58:04;;;;;;;7.32;2.83;;;6.60;99.90;;;;;;5084350;28;20016;-84
2024/02/23 08:00:29;;;;;;;6.20;1.60;;;6.60;99.90;;;;;;5091360;28;20053;-84
2024/02/23 08:02:56;;;;;;;10.80;1.83;;;6.60;99.90;;;;;;5091943;28;20035;-84
2024/02/23 08:05:23;;;;;;;11.43;2.08;;;6.50;99.90;;;;;;5090449;28;20182;-84
2024/02/23 08:07:49;;;;;;;12.57;1.58;;;6.60;99.90;;;;;;5092619;28;20056;-83
2024/02/23 08:10:14;;;;;;;12.52;2.58;;;6.50;99.90;;;;;;5089534;28;20096;-82
2024/02/23 08:12:40;;;;;;;9.18;1.15;;;6.50;99.90;;;;;;5078696;28;20751;-83
2024/02/23 08:15:06;;;;;;;8.40;1.88;;;6.50;99.90;;;;;;5086244;28;20028;-85
2024/02/23 08:17:32;;;;;;;18.23;2.97;;;6.50;99.90;;;;;;5078910;28;20078;-85
2024/02/23 08:19:58;;;;;;;11.20;2.42;;;6.50;99.90;;;;;;5091594;28;20488;-84
2024/02/23 08:22:23;;;;;;;9.63;2.45;;;6.50;99.90;;;;;;5093101;28;20020;-85
2024/02/23 08:24:49;;;;;;;8.15;2.13;;;7.30;99.90;;;;;;5093170;28;20039;-84
2024/02/23 08:27:15;;;;;;;7.72;1.58;;;6.50;99.90;;;;;;5093127;28;20031;-83
2024/02/23 08:29:41;;;;;;;10.27;2.10;;;6.40;99.90;;;;;;5092951;28;20028;-83
2024/02/23 08:32:07;;;;;;;6.10;1.85;;;6.40;99.90;;;;;;5094112;28;20128;-89
2024/02/23 08:34:33;;;;;;;5.22;1.80;;;6.40;99.90;;;;;;5095342;28;20050;-86
2024/02/23 08:37:00;;;;;;;8.18;1.98;;;6.40;99.90;;;;;;5094500;28;20036;-87
2024/02/23 08:39:25;;;;;;;4.25;1.95;;;6.40;99.90;;;;;;5094177;28;20103;-89
2024/02/23 08:41:52;;;;;;;6.47;1.25;;;6.40;99.90;;;;;;5088761;28;20136;-86
2024/02/23 08:44:18;;;;;;;11.18;1.83;;;6.40;99.90;;;;;;5093502;28;20030;-85
2024/02/23 08:46:43;;;;;;;6.90;1.90;;;6.40;99.90;;;;;;5091609;28;20107;-84
2024/02/23 08:49:09;;;;;;;9.30;1.58;;;6.40;99.90;;;;;;5094354;28;20540;-83
2024/02/23 08:51:35;;;;;;;8.90;2.15;;;6.40;99.90;;;;;;5091109;28;20020;-84
2024/02/23 08:54:05;;;;;;;11.65;2.03;;;6.40;99.90;;;;;;5092108;28;20111;-84
2024/02/23 08:56:31;;;;;;;7.53;1.67;;;6.40;99.90;;;;;;5090545;28;20156;-83
2024/02/23 08:58:57;;;;;;;7.45;1.40;;;6.40;99.90;;;;;;5091848;28;20039;-86
2024/02/23 09:01:23;;;;;;;8.57;1.73;;;6.40;99.90;;;;;;5091882;28;20069;-86
2024/02/23 09:03:48;;;;;;;8.70;2.08;;;6.40;99.90;;;;;;5092772;28;20024;-86
2024/02/23 09:06:14;;;;;;;8.10;1.85;;;6.40;99.90;;;;;;5085670;28;20048;-84
2024/02/23 09:08:41;;;;;;;9.25;3.47;;;6.40;99.90;;;;;;5091809;28;20012;-83
2024/02/23 09:11:06;;;;;;;7.93;1.55;;;6.50;99.90;;;;;;5087142;28;20107;-90
2024/02/23 09:13:32;;;;;;;6.13;1.75;;;6.50;99.90;;;;;;5078006;28;20107;-88
2024/02/23 09:15:58;;;;;;;11.15;2.72;;;6.50;99.90;;;;;;5092601;28;20471;-86
2024/02/23 09:18:24;;;;;;;7.50;2.33;;;6.50;99.90;;;;;;5091119;28;20016;-80
2024/02/23 09:20:50;;;;;;;13.13;1.92;;;6.50;99.90;;;;;;5071530;28;20029;-87
2024/02/23 09:23:17;;;;;;;9.02;1.90;;;6.50;99.90;;;;;;5080095;28;20024;-84
2024/02/23 09:25:43;;;;;;;6.40;2.13;;;6.50;99.90;;;;;;5083456;28;20391;-85
2024/02/23 09:28:11;;;;;;;3.75;1.50;;;6.50;99.90;;;;;;5083390;28;20099;-85
2024/02/23 09:30:36;;;;;;;5.03;1.50;;;6.50;99.90;;;;;;5089984;28;20094;-87
2024/02/23 09:33:02;;;;;;;4.57;1.05;;;6.60;99.90;;;;;;5087750;28;20771;-85
2024/02/23 09:35:28;;;;;;;2.67;1.27;;;6.60;99.90;;;;;;5089493;28;20064;-84
2024/02/23 09:37:53;;;;;;;4.72;1.30;;;6.70;99.90;;;;;;5089018;28;20496;-90
2024/02/23 09:40:20;;;;;;;6.18;2.03;;;6.70;99.90;;;;;;5088680;28;20617;-89
2024/02/23 09:43:01;;;;;;;7.28;1.48;;;7.30;99.90;;;;;;5091167;28;20024;-86
2024/02/23 09:45:27;;;;;;;3.72;1.30;;;7.00;99.90;;;;;;5081294;28;20032;-87
2024/02/23 09:47:57;;;;;;;4.30;1.30;;;6.90;99.90;;;;;;5081893;28;20054;-85
2024/02/23 09:50:23;;;;;;;8.57;1.65;;;7.90;99.90;;;;;;5091182;28;20463;-85
2024/02/23 09:52:50;;;;;;;4.55;1.65;;;8.00;99.90;;;;;;5091467;28;20071;-86
2024/02/23 09:55:25;;;;;;;9.07;2.08;;;6.90;99.90;;;;;;5089137;28;20024;-85
2024/02/23 09:57:56;;;;;;;8.90;1.83;;;7.00;99.90;;;;;;5090527;28;20510;-82
2024/02/23 10:00:23;;;;;;;4.15;1.27;;;7.00;99.90;;;;;;5090713;28;20024;-87
2024/02/23 10:02:49;;;;;;;8.73;1.75;;;7.00;99.90;;;;;;5093101;28;20016;-92
2024/02/23 10:05:17;;;;;;;3.90;1.63;;;7.00;99.90;;;;;;5092022;28;20089;-86
2024/02/23 10:07:44;;;;;;;3.60;1.70;;;7.00;99.90;;;;;;5091510;28;20020;-85
2024/02/23 10:10:10;;;;;;;11.75;2.30;;;7.00;99.90;;;;;;5075727;28;20123;-85
2024/02/23 10:12:36;;;;;;;5.20;1.95;;;7.00;99.90;;;;;;5075738;28;20021;-88
2024/02/23 10:15:05;;;;;;;4.95;1.70;;;7.00;99.90;;;;;;5083298;28;20032;-85
2024/02/23 10:17:32;;;;;;;12.88;1.85;;;7.00;99.90;;;;;;5090074;28;20028;-94
2024/02/23 10:20:04;;;;;;;5.88;1.63;;;6.90;99.90;;;;;;5074545;28;20461;-82
2024/02/23 10:22:31;;;;;;;6.55;2.13;;;7.80;99.90;;;;;;5089022;28;20526;-88
2024/02/23 10:24:57;;;;;;;6.15;1.73;;;7.00;99.90;;;;;;5090546;28;20036;-86
2024/02/23 10:27:23;;;;;;;8.88;1.58;;;7.00;99.90;;;;;;5096395;28;20016;-83
2024/02/23 10:29:51;;;;;;;7.60;2.13;;;7.00;99.90;;;;;;5078953;28;20024;-83
2024/02/23 10:32:19;;;;;;;5.07;1.42;;;7.00;99.90;;;;;;5084883;28;20028;-84
2024/02/23 10:34:48;;;;;;;12.60;3.13;;;7.00;99.90;;;;;;5101352;28;20020;-84
2024/02/23 10:37:14;;;;;;;6.53;1.98;;;7.10;99.90;;;;;;5089421;28;20458;-85
2024/02/23 10:39:40;;;;;;;11.63;3.22;;;7.10;99.90;;;;;;5078554;28;20021;-86
2024/02/23 10:42:12;;;;;;;9.68;1.65;;;7.20;99.90;;;;;;5089105;28;20058;-86
2024/02/23 10:44:39;;;;;;;9.52;1.88;;;7.20;99.90;;;;;;5089497;28;20036;-85
2024/02/23 10:47:05;;;;;;;5.40;1.70;;;7.20;99.90;;;;;;5087864;28;20039;-86
2024/02/23 10:49:31;;;;;;;5.05;1.83;;;7.20;99.90;;;;;;5080177;28;20482;-85
2024/02/23 10:51:57;;;;;;;7.43;2.13;;;8.00;99.90;;;;;;5095231;28;20058;-89
2024/02/23 10:54:22;;;;;;;10.02;2.85;;;7.20;99.90;;;;;;5090075;28;20047;-87
2024/02/23 10:56:50;;;;;;;8.77;2.10;;;7.20;99.90;;;;;;5087558;28;20032;-88
2024/02/23 10:59:18;;;;;;;7.50;2.05;;;7.20;99.90;;;;;;5091648;28;20050;-86
2024/02/23 11:01:51;;;;;;;2.63;1.55;;;7.20;99.90;;;;;;5090676;28;20032;-88
2024/02/23 11:04:18;;;;;;;7.57;2.38;;;7.30;99.90;;;;;;5091648;28;20022;-87
2024/02/23 11:06:51;;;;;;;3.83;2.20;;;7.30;99.90;;;;;;5092365;28;20104;-88
2024/02/23 11:09:20;;;;;;;10.80;1.88;;;7.40;99.90;;;;;;5091610;28;20016;-88
2024/02/23 11:11:56;;;;;;;9.85;2.25;;;7.40;99.90;;;;;;5093935;28;20070;-87
2024/02/23 11:14:44;;;;;;;6.55;2.03;;;7.50;99.90;;;;;;5095736;28;20065;-83
2024/02/23 11:17:19;;;;;;;4.03;2.00;;;7.60;99.90;;;;;;5091234;28;20031;-86
2024/02/23 11:19:48;;;;;;;3.17;1.75;;;7.60;99.90;;;;;;5094483;28;20028;-85
2024/02/23 11:22:14;;;;;;;6.65;1.38;;;7.70;99.90;;;;;;5084322;28;20036;-85
2024/02/23 11:24:46;;;;;;;8.40;2.28;;;7.70;99.90;;;;;;5082062;28;20036;-85
2024/02/23 11:27:17;;;;;;;8.45;1.60;;;7.80;99.90;;;;;;5094154;28;20033;-84
2024/02/23 11:29:45;;;;;;;8.32;2.38;;;7.80;99.90;;;;;;5093723;28;20085;-84
2024/02/23 11:32:20;;;;;;;4.00;1.30;;;7.80;99.90;;;;;;5095050;28;20060;-84
2024/02/23 11:35:05;;;;;;;7.65;1.42;;;7.80;99.90;;;;;;5095025;28;20091;-84
2024/02/23 11:37:31;;;;;;;24.73;2.47;;;7.80;99.90;;;;;;5094016;28;20036;-84
2024/02/23 11:39:57;;;;;;;3.72;1.33;;;7.90;99.90;;;;;;5094013;28;20049;-84
2024/02/23 11:42:27;;;;;;;5.95;1.63;;;7.80;99.90;;;;;;5087795;28;20031;-84
2024/02/23 11:44:57;;;;;;;6.93;1.70;;;7.90;99.90;;;;;;5092775;28;20035;-84
2024/02/23 11:47:22;;;;;;;4.10;1.70;;;7.90;99.90;;;;;;5107437;28;20445;-84
2024/02/23 11:49:48;;;;;;;4.95;1.70;;;7.90;99.90;;;;;;5111652;28;20028;-84
2024/02/23 11:52:14;;;;;;;3.95;1.42;;;8.70;99.90;;;;;;5112204;28;20020;-83
2024/02/23 11:54:41;;;;;;;3.63;1.50;;;7.90;99.90;;;;;;5094655;28;20028;-84
2024/02/23 11:57:07;;;;;;;5.53;1.80;;;7.90;99.90;;;;;;5090948;28;20028;-82
2024/02/23 11:59:32;;;;;;;3.20;1.00;;;7.90;99.90;;;;;;5093017;28;20024;-83
2024/02/23 12:01:58;;;;;;;5.22;1.80;;;7.90;99.90;;;;;;5089804;28;20031;-84
2024/02/23 12:04:23;;;;;;;8.45;1.95;;;8.00;99.90;;;;;;5081738;28;20492;-84
2024/02/23 12:06:49;;;;;;;4.53;1.48;;;8.00;99.90;;;;;;5077142;28;20031;-82
2024/02/23 12:09:15;;;;;;;7.43;1.70;;;8.00;99.90;;;;;;5073251;28;20021;-82
2024/02/23 12:11:41;;;;;;;4.53;1.30;;;8.10;99.90;;;;;;5090312;28;20490;-83
2024/02/23 12:14:10;;;;;;;13.98;1.95;;;8.10;99.90;;;;;;5093565;28;20045;-83
2024/02/23 12:16:36;;;;;;;8.18;1.65;;;8.10;99.90;;;;;;5093077;28;20020;-83
2024/02/23 12:19:03;;;;;;;5.60;0.98;;;8.20;99.90;;;;;;5092764;28;20033;-83
2024/02/23 12:21:28;;;;;;;7.55;1.48;;;8.30;99.90;;;;;;5079692;28;20028;-83
2024/02/23 12:23:54;;;;;;;4.47;1.40;;;8.20;99.90;;;;;;5074243;28;20506;-83
2024/02/23 12:26:20;;;;;;;5.28;1.23;;;8.30;99.90;;;;;;5073753;28;20040;-83
2024/02/23 12:28:46;;;;;;;9.88;1.70;;;9.10;99.90;;;;;;5091613;28;20024;-82
2024/02/23 12:31:12;;;;;;;8.07;1.65;;;8.50;99.90;;;;;;5092953;28;20112;-82
2024/02/23 12:33:39;;;;;;;9.55;2.20;;;8.50;99.90;;;;;;5091290;28;20024;-83
2024/02/23 12:36:06;;;;;;;6.97;1.40;;;8.70;99.90;;;;;;5093150;28;20028;-83
2024/02/23 12:38:32;;;;;;;12.82;1.88;;;8.70;99.90;;;;;;5092068;28;20112;-82
2024/02/23 12:40:59;;;;;;;7.22;1.38;;;9.10;99.90;;;;;;5091235;28;20126;-82
2024/02/23 12:43:25;;;;;;;6.80;1.58;;;8.70;99.90;;;;;;5091325;28;20140;-83
2024/02/23 12:45:51;;;;;;;2.67;1.17;;;8.70;99.90;;;;;;5139601;22;20806;-83
2024/02/23 12:48:20;;;;;;;3.63;1.40;;;9.30;99.90;;;;;;5055726;28;20083;-83